This is the latest recevied weather packets stored in our database for station/object SR5NLK-1. If no packets are shown the sender has not sent any weather packets the latest 10 day(s).
| Time | Temp. | Humidity | Pressure | Rain* | Wind** | Luminosity | Snow |
|---|---|---|---|---|---|---|---|
| 1787819441 | 28.89° C | 44% | 1072.1 hPa | 0 mm | - | - | - |
| 1787819399 | 26.67° C | 43% | 1075.2 hPa | 0 mm | - | - | - |
| 1787819099 | 27.22° C | 44% | 1084.7 hPa | 0 mm | - | - | - |
| 1787819056 | 28.89° C | 44% | 1072.1 hPa | 0 mm | - | - | - |
| 1787818836 | 27.22° C | 43% | 1081.5 hPa | 0 mm | - | - | - |
| 1787818799 | 27.22° C | 43% | 1081.5 hPa | 0 mm | - | - | - |
| 1787818545 | 27.22° C | 42% | 1090.9 hPa | 0 mm | - | - | - |
| 1787818499 | 27.22° C | 42% | 1090.9 hPa | 0 mm | - | - | - |
| 1787818318 | 27.78° C | 47% | 1059.5 hPa | 0 mm | - | - | - |
| 1787818199 | 27.78° C | 41% | 1001.8 hPa | 0 mm | - | - | - |
| 1787817979 | 27.22° C | 48% | 1062.7 hPa | 0 mm | - | - | - |
| 1787817900 | 28.33° C | 43% | 1075.3 hPa | 0 mm | - | - | - |
| 1787817839 | 28.33° C | 43% | 1065.8 hPa | 0 mm | - | - | - |
| 1787817640 | 26.67° C | 49% | 1062.7 hPa | 0 mm | - | - | - |
| 1787817599 | 28.33° C | 43% | 1072.1 hPa | 0 mm | - | - | - |
| 1787817300 | 28.33° C | 43% | 1075.3 hPa | 0 mm | - | - | - |
| 1787816999 | 28.89° C | 43% | 1084.6 hPa | 0 mm | - | - | - |
| 1787816925 | 25° C | 53% | 1023.1 hPa | 0 mm | - | - | - |
| 1787816699 | 28.33° C | 44% | 1078.4 hPa | 0 mm | - | - | - |
| 1787816552 | 24.44° C | 53% | 1072.1 hPa | 0 mm | - | - | - |
| 1787816430 | 28.33° C | 43% | 1072.1 hPa | 0 mm | - | - | - |
| 1787816399 | 28.33° C | 43% | 1072.1 hPa | 0 mm | - | - | - |
| 1787816132 | 28.33° C | 43% | 1075.2 hPa | 0 mm | - | - | - |
| 1787816099 | 28.33° C | 43% | 1075.2 hPa | 0 mm | - | - | - |
| 1787815859 | 28.33° C | 44% | 1065.8 hPa | 0 mm | - | - | - |
* Rain latest hour (hover to see other rain measurements)
** Current wind speed in m/s (hover to see current wind gust speed)